Terminal Aerodrome Forecast
Issued by NWS

Home | Current Version | Previous Version | Text Only | Print | Product List | Glossary On
Versions: 1 2 3 4 5 6 7 8 9 10 11 12 13 14 15 16 17 18 19 20
000
FTUS44 KBMX 220520
TAFANB
TAF
KANB 220520Z 2206/2306 06005KT P6SM -RA SCT008 OVC030
      TEMPO 2206/2208 BKN008
     FM220800 05005KT P6SM -RA OVC008
     FM221600 08006KT P6SM VCSH OVC015
     FM222100 09008KT P6SM OVC025=

USA.gov is the U.S. government's official web portal to all federal, state and local government web resources and services.